Time;durP1;ratioP1;P1;durP2;ratioP2;P2;SDS_P1;SDS_P2;PMS_P1;PMS_P2;Temp;Humidity;BMP_temperature;BMP_pressure;BME280_temperature;BME280_humidity;BME280_pressure;Samples;Min_cycle;Max_cycle;Signal;HPM_P1;HPM_P2
2022/03/09 00:01:55;;;;;;;18.07;10.80;;;;;;;4.95;42.29;102072.38;5224405;28;20026;-78
2022/03/09 00:04:27;;;;;;;14.90;10.47;;;;;;;4.82;42.81;102071.72;5222008;28;20045;-77
2022/03/09 00:06:58;;;;;;;19.73;9.90;;;;;;;4.71;42.31;102072.72;5231811;28;20044;-77
2022/03/09 00:09:29;;;;;;;15.27;9.77;;;;;;;4.77;42.46;102070.94;5230736;28;20083;-78
2022/03/09 00:12:02;;;;;;;15.27;9.73;;;;;;;4.92;41.65;102069.84;5237256;28;20068;-78
2022/03/09 00:14:33;;;;;;;13.90;9.20;;;;;;;4.86;41.65;102068.19;5231443;28;20077;-78
2022/03/09 00:17:05;;;;;;;14.37;9.03;;;;;;;4.94;41.43;102079.31;5232410;28;20404;-77
2022/03/09 00:19:36;;;;;;;15.47;8.67;;;;;;;5.04;41.11;102085.22;5231914;28;20102;-77
2022/03/09 00:22:07;;;;;;;16.70;9.67;;;;;;;4.91;41.29;102086.28;5232072;28;20029;-77
2022/03/09 00:24:39;;;;;;;14.97;9.37;;;;;;;4.88;41.36;102084.63;5231856;28;20020;-77
2022/03/09 00:27:10;;;;;;;15.97;8.57;;;;;;;4.92;41.44;102085.44;5237475;28;20032;-77
2022/03/09 00:29:42;;;;;;;15.93;9.53;;;;;;;4.86;41.11;102075.13;5255769;28;20024;-78
2022/03/09 00:32:13;;;;;;;13.30;8.63;;;;;;;4.78;40.92;102073.50;5252942;28;20047;-78
2022/03/09 00:34:44;;;;;;;15.40;8.40;;;;;;;4.95;41.16;102082.78;5250944;28;20474;-77
2022/03/09 00:37:16;;;;;;;13.27;8.33;;;;;;;4.93;41.01;102094.91;5227985;28;20099;-77
2022/03/09 00:39:47;;;;;;;13.53;8.57;;;;;;;4.87;41.24;102082.88;5231998;28;20046;-77
2022/03/09 00:42:18;;;;;;;12.30;8.43;;;;;;;4.79;41.70;102093.41;5222086;28;20029;-78
2022/03/09 00:44:50;;;;;;;11.50;8.67;;;;;;;4.75;41.28;102078.75;5211769;28;20049;-79
2022/03/09 00:47:21;;;;;;;12.33;9.37;;;;;;;4.73;41.57;102083.09;5217027;28;20021;-78
2022/03/09 00:49:52;;;;;;;15.37;9.53;;;;;;;4.83;41.27;102079.47;5229804;28;20086;-78
2022/03/09 00:52:23;;;;;;;14.40;8.67;;;;;;;4.72;41.72;102083.97;5229537;28;20027;-78
2022/03/09 00:54:55;;;;;;;16.73;9.50;;;;;;;4.74;41.58;102084.81;5227489;28;20483;-77
2022/03/09 00:57:26;;;;;;;13.63;8.50;;;;;;;4.82;40.97;102074.31;5236360;28;20025;-78
2022/03/09 00:59:57;;;;;;;12.93;8.87;;;;;;;4.84;41.03;102086.41;5228722;28;20614;-78
2022/03/09 01:02:29;;;;;;;12.90;7.73;;;;;;;4.86;40.86;102069.94;5231555;28;20107;-79
2022/03/09 01:05:00;;;;;;;14.27;8.70;;;;;;;4.85;41.59;102079.47;5222532;28;20053;-78
2022/03/09 01:07:31;;;;;;;11.53;8.00;;;;;;;4.79;41.34;102082.16;5227699;28;20029;-78
2022/03/09 01:10:04;;;;;;;14.57;8.73;;;;;;;4.68;41.84;102084.91;5228379;28;20087;-77
2022/03/09 01:12:37;;;;;;;13.67;8.87;;;;;;;4.64;41.46;102078.94;5209664;28;20044;-78
2022/03/09 01:15:08;;;;;;;11.60;8.50;;;;;;;4.55;42.04;102077.31;5213961;28;20525;-78
2022/03/09 01:17:40;;;;;;;12.17;8.33;;;;;;;4.67;41.58;102067.63;5221478;28;20112;-78
2022/03/09 01:20:11;;;;;;;13.83;9.13;;;;;;;4.71;41.38;102077.94;5224449;28;20099;-78
2022/03/09 01:22:43;;;;;;;15.27;9.67;;;;;;;4.65;41.90;102069.38;5213378;28;20478;-78
2022/03/09 01:25:14;;;;;;;12.90;8.43;;;;;;;4.75;41.50;102078.75;5210403;28;20025;-78
2022/03/09 01:27:45;;;;;;;13.17;8.57;;;;;;;4.86;41.08;102077.72;5223449;28;20029;-78
2022/03/09 01:30:17;;;;;;;18.63;10.93;;;;;;;4.66;41.52;102086.69;5226517;28;20490;-78
2022/03/09 01:32:48;;;;;;;11.93;8.67;;;;;;;4.54;42.05;102087.72;5215123;28;20030;-78
2022/03/09 01:35:20;;;;;;;14.50;8.93;;;;;;;4.49;41.72;102069.59;5223672;28;20029;-78
2022/03/09 01:37:51;;;;;;;13.50;8.70;;;;;;;4.62;41.35;102082.41;5228869;28;20033;-78
2022/03/09 01:40:22;;;;;;;12.97;7.80;;;;;;;4.47;41.59;102076.53;5210798;28;20022;-78
2022/03/09 01:42:55;;;;;;;22.33;9.00;;;;;;;4.51;41.67;102077.38;5208816;28;20026;-78
2022/03/09 01:45:26;;;;;;;14.00;9.07;;;;;;;4.62;41.33;102072.03;5216063;28;20029;-78
2022/03/09 01:47:57;;;;;;;14.57;9.87;;;;;;;4.45;41.89;102071.38;5209850;28;20431;-75
2022/03/09 01:50:28;;;;;;;18.43;8.90;;;;;;;4.40;41.94;102069.75;5224713;28;20029;-77
2022/03/09 01:53:00;;;;;;;12.87;7.57;;;;;;;4.57;41.79;102066.91;5228016;28;20033;-78
2022/03/09 01:55:31;;;;;;;14.67;8.40;;;;;;;4.43;42.00;102074.91;5216215;28;20091;-78
2022/03/09 01:58:03;;;;;;;12.17;8.20;;;;;;;4.52;41.49;102064.38;5217946;28;20477;-78
2022/03/09 02:00:34;;;;;;;14.63;8.13;;;;;;;4.30;42.17;102062.09;5230379;28;20476;-78
2022/03/09 02:03:05;;;;;;;16.20;9.20;;;;;;;4.35;42.50;102057.69;5229548;28;20630;-79
2022/03/09 02:05:36;;;;;;;11.73;8.33;;;;;;;4.36;41.88;102064.59;5214207;28;20429;-79
2022/03/09 02:10:58;;;;;;;11.47;8.27;;;;;;;4.14;42.15;102050.22;5282160;22;20429;-78
2022/03/09 02:13:29;;;;;;;15.13;8.90;;;;;;;4.19;42.37;102074.34;5287353;28;20103;-78
2022/03/09 02:16:00;;;;;;;17.00;8.53;;;;;;;4.21;42.21;102068.25;5275319;28;20033;-78
2022/03/09 02:18:31;;;;;;;12.23;8.80;;;;;;;4.27;42.26;102075.09;5272840;28;20673;-78
2022/03/09 02:21:03;;;;;;;9.87;7.50;;;;;;;4.14;42.37;102073.56;5278609;28;20542;-78
2022/03/09 02:23:34;;;;;;;12.50;8.83;;;;;;;3.99;43.26;102055.56;5279210;28;20044;-78
2022/03/09 02:26:05;;;;;;;14.40;8.83;;;;;;;4.01;43.74;102078.03;5279280;28;20025;-78
2022/03/09 02:28:45;;;;;;;11.90;9.03;;;;;;;3.97;43.26;102074.59;5287545;28;20033;-78
2022/03/09 02:31:16;;;;;;;14.97;10.23;;;;;;;3.87;43.49;102069.53;5279459;28;20383;-79
2022/03/09 02:33:48;;;;;;;12.83;9.33;;;;;;;3.84;43.51;102071.31;5280101;28;20063;-77
2022/03/09 02:36:20;;;;;;;15.80;9.83;;;;;;;3.73;43.60;102069.72;5278894;28;20038;-78
2022/03/09 02:38:51;;;;;;;13.47;9.73;;;;;;;3.78;44.00;102067.06;5291175;28;20504;-78
2022/03/09 02:41:22;;;;;;;15.57;9.10;;;;;;;3.75;43.50;102067.94;5293824;28;20032;-78
2022/03/09 02:43:54;;;;;;;13.33;8.67;;;;;;;3.79;43.71;102060.97;5299749;28;20117;-77
2022/03/09 02:46:26;;;;;;;18.50;10.80;;;;;;;3.70;43.80;102061.94;5287863;28;20710;-78
2022/03/09 02:48:57;;;;;;;17.77;9.90;;;;;;;3.74;44.12;102052.41;5295583;28;20047;-77
2022/03/09 02:51:29;;;;;;;16.90;8.83;;;;;;;3.90;43.74;102054.81;5291987;28;20028;-78
2022/03/09 02:54:00;;;;;;;13.87;9.20;;;;;;;3.73;43.86;102053.28;5278134;28;20119;-78
2022/03/09 02:56:32;;;;;;;17.37;9.57;;;;;;;3.66;44.17;102042.13;5281771;28;20367;-78
2022/03/09 02:59:03;;;;;;;13.10;8.63;;;;;;;3.67;43.99;102045.56;5287924;28;20032;-79
2022/03/09 03:01:35;;;;;;;17.80;9.90;;;;;;;3.50;44.57;102051.81;5279816;28;20035;-78
2022/03/09 03:04:06;;;;;;;11.30;8.37;;;;;;;3.62;44.24;102043.91;5284710;28;20049;-78
2022/03/09 03:06:38;;;;;;;13.57;10.07;;;;;;;3.50;44.49;102054.41;5299726;27;20040;-79
2022/03/09 03:09:09;;;;;;;13.67;8.93;;;;;;;3.58;44.26;102055.16;5294346;28;20044;-77
2022/03/09 03:11:40;;;;;;;12.23;8.60;;;;;;;3.66;44.23;102051.63;5284829;28;20054;-79
2022/03/09 03:14:12;;;;;;;12.40;9.20;;;;;;;3.69;44.73;102052.47;5289894;28;20042;-78
2022/03/09 03:16:43;;;;;;;12.40;7.90;;;;;;;3.51;45.05;102056.09;5290167;28;20024;-78
2022/03/09 03:19:14;;;;;;;15.87;9.30;;;;;;;3.55;44.66;102038.78;5286677;28;20058;-78
2022/03/09 03:21:45;;;;;;;13.03;8.43;;;;;;;3.74;44.46;102055.88;5300085;28;20454;-78
2022/03/09 03:24:16;;;;;;;17.07;10.10;;;;;;;3.79;44.08;102053.22;5292903;28;20480;-79
2022/03/09 03:26:48;;;;;;;15.87;9.50;;;;;;;3.62;44.61;102051.69;5292598;28;20488;-79
2022/03/09 03:29:19;;;;;;;15.20;8.90;;;;;;;3.60;45.00;102043.06;5298129;28;20527;-79
2022/03/09 03:31:50;;;;;;;10.00;8.20;;;;;;;3.81;44.11;102051.47;5297718;28;20035;-79
2022/03/09 03:34:22;;;;;;;15.43;9.33;;;;;;;3.59;44.90;102045.66;5280019;28;20052;-78
2022/03/09 03:36:53;;;;;;;13.57;8.77;;;;;;;3.49;44.68;102039.75;5290521;28;20123;-79
2022/03/09 03:39:24;;;;;;;17.10;9.93;;;;;;;3.61;44.44;102049.94;5275231;28;20047;-79
2022/03/09 03:41:55;;;;;;;16.43;8.93;;;;;;;3.44;44.63;102037.19;5274075;28;20024;-79
2022/03/09 03:44:27;;;;;;;12.73;8.67;;;;;;;3.45;45.46;102043.22;5277767;28;20024;-77
2022/03/09 03:46:58;;;;;;;13.00;9.13;;;;;;;3.33;45.24;102049.38;5293896;28;20089;-77
2022/03/09 03:49:29;;;;;;;15.83;9.20;;;;;;;3.29;45.44;102052.88;5288106;28;20025;-78
2022/03/09 03:52:01;;;;;;;16.23;9.80;;;;;;;3.18;45.42;102042.63;5274949;28;20025;-79
2022/03/09 03:54:32;;;;;;;13.93;9.23;;;;;;;3.15;45.70;102051.28;5285630;28;20496;-79
2022/03/09 03:57:04;;;;;;;15.37;9.77;;;;;;;3.01;46.07;102046.22;5273303;28;20020;-79
2022/03/09 03:59:35;;;;;;;15.00;8.40;;;;;;;3.06;45.90;102041.00;5286020;28;20051;-80
2022/03/09 04:02:06;;;;;;;17.63;9.97;;;;;;;3.07;45.77;102053.09;5294931;28;20028;-79
2022/03/09 04:04:38;;;;;;;16.33;8.67;;;;;;;3.09;46.02;102047.00;5286793;28;20025;-79
2022/03/09 04:07:09;;;;;;;13.10;8.70;;;;;;;3.21;45.48;102050.38;5273978;28;20025;-79
2022/03/09 04:09:40;;;;;;;13.20;9.17;;;;;;;3.22;45.72;102049.50;5277809;28;20177;-79
2022/03/09 04:12:11;;;;;;;15.27;9.30;;;;;;;3.14;46.07;102060.75;5292799;28;20110;-80
2022/03/09 04:14:43;;;;;;;12.70;9.60;;;;;;;3.06;45.80;102047.03;5286204;28;20044;-79
2022/03/09 04:17:14;;;;;;;12.63;8.43;;;;;;;3.24;45.35;102060.69;5290636;28;20637;-80
2022/03/09 04:19:45;;;;;;;14.60;8.77;;;;;;;3.24;44.91;102058.09;5284334;28;20036;-79
2022/03/09 04:22:16;;;;;;;14.07;9.10;;;;;;;3.07;46.20;102053.91;5273976;28;20486;-78
2022/03/09 04:24:48;;;;;;;13.17;9.53;;;;;;;3.28;45.60;102057.22;5283801;28;20421;-79
2022/03/09 04:27:19;;;;;;;15.07;9.47;;;;;;;3.21;45.54;102051.22;5294181;28;20024;-79
2022/03/09 04:29:50;;;;;;;14.87;9.83;;;;;;;3.08;45.87;102034.94;5281086;28;20103;-79
2022/03/09 04:32:22;;;;;;;14.30;10.10;;;;;;;3.30;45.50;102042.50;5276480;28;20028;-79
2022/03/09 04:34:53;;;;;;;16.97;9.37;;;;;;;3.14;45.74;102042.63;5285353;28;20612;-78
2022/03/09 04:37:24;;;;;;;13.97;9.63;;;;;;;3.20;45.94;102046.91;5279986;28;20043;-79
2022/03/09 04:39:57;;;;;;;12.43;9.33;;;;;;;3.20;45.75;102039.16;5295109;28;20028;-79
2022/03/09 04:42:30;;;;;;;12.77;9.33;;;;;;;3.05;46.08;102049.63;5293456;28;20051;-78
2022/03/09 04:45:01;;;;;;;13.70;9.27;;;;;;;3.06;46.50;102039.28;5292761;28;20399;-79
2022/03/09 04:47:33;;;;;;;13.77;8.93;;;;;;;2.93;46.32;102040.25;5286477;28;20874;-79
2022/03/09 04:50:04;;;;;;;13.23;8.77;;;;;;;3.10;45.73;102037.53;5280100;28;20032;-78
2022/03/09 04:52:36;;;;;;;12.27;8.33;;;;;;;3.01;46.24;102038.44;5273570;28;20036;-79
2022/03/09 04:55:08;;;;;;;14.13;9.53;;;;;;;2.99;46.33;102033.28;5277008;28;20029;-78
2022/03/09 04:57:40;;;;;;;15.23;9.17;;;;;;;3.11;45.86;102045.25;5286377;28;20503;-79
2022/03/09 05:00:12;;;;;;;14.37;8.60;;;;;;;3.01;46.30;102034.16;5282141;28;20031;-79
2022/03/09 05:02:44;;;;;;;15.40;8.90;;;;;;;2.99;46.39;102043.66;5281930;28;20785;-80
2022/03/09 05:05:15;;;;;;;15.07;9.33;;;;;;;2.85;46.75;102036.00;5272870;28;20107;-80
2022/03/09 05:07:46;;;;;;;15.77;9.93;;;;;;;2.94;46.58;102041.97;5273630;28;20095;-80
2022/03/09 05:10:17;;;;;;;12.93;8.83;;;;;;;2.98;47.01;102038.47;5285772;28;20784;-80
2022/03/09 05:12:49;;;;;;;18.93;8.90;;;;;;;3.05;46.01;102045.34;5293481;28;20031;-80
2022/03/09 05:15:20;;;;;;;15.00;9.20;;;;;;;2.80;46.66;102039.47;5276583;28;20406;-80
2022/03/09 05:17:51;;;;;;;15.50;9.07;;;;;;;2.80;46.59;102035.16;5288743;28;20505;-80
2022/03/09 05:20:23;;;;;;;18.27;9.03;;;;;;;2.84;46.67;102051.53;5278587;28;20625;-78
2022/03/09 05:22:54;;;;;;;13.40;8.73;;;;;;;2.82;46.78;102046.38;5272728;28;20025;-80
2022/03/09 05:25:25;;;;;;;12.40;8.63;;;;;;;2.77;47.17;102043.84;5271658;28;20024;-79
2022/03/09 05:27:59;;;;;;;15.47;9.07;;;;;;;2.78;46.97;102039.50;5271647;28;20039;-79
2022/03/09 05:30:30;;;;;;;17.03;9.37;;;;;;;2.70;46.91;102049.03;5278183;28;20119;-79
2022/03/09 05:33:01;;;;;;;14.50;8.83;;;;;;;2.63;46.79;102046.53;5272735;28;20369;-80
2022/03/09 05:35:33;;;;;;;12.30;8.23;;;;;;;2.89;46.51;102052.34;5286985;28;20025;-81
2022/03/09 05:38:04;;;;;;;12.37;8.77;;;;;;;2.94;46.36;102052.31;5272003;28;20033;-80
2022/03/09 05:40:35;;;;;;;16.80;10.53;;;;;;;2.79;47.04;102056.75;5287982;28;20123;-80
2022/03/09 05:43:06;;;;;;;17.53;10.13;;;;;;;2.65;46.72;102052.50;5288700;28;20028;-78
2022/03/09 05:45:38;;;;;;;17.03;10.07;;;;;;;2.51;47.12;102054.34;5277155;28;20035;-79
2022/03/09 05:48:09;;;;;;;15.93;9.70;;;;;;;2.49;47.29;102061.25;5293170;28;20024;-79
2022/03/09 05:50:40;;;;;;;11.77;8.53;;;;;;;2.56;47.19;102055.19;5293279;28;20092;-78
2022/03/09 05:53:12;;;;;;;13.10;9.13;;;;;;;2.41;48.00;102062.16;5293341;28;20028;-79
2022/03/09 05:55:43;;;;;;;13.13;9.30;;;;;;;2.32;48.34;102063.94;5274057;28;20032;-84
2022/03/09 05:58:14;;;;;;;17.17;9.80;;;;;;;2.28;47.92;102068.25;5291208;28;20111;-79
2022/03/09 06:00:45;;;;;;;17.73;9.97;;;;;;;2.28;48.86;102081.19;5284604;28;20030;-83
2022/03/09 06:03:17;;;;;;;14.37;9.20;;;;;;;2.15;48.45;102081.25;5291765;28;20028;-84
2022/03/09 06:05:48;;;;;;;15.53;9.33;;;;;;;2.24;48.57;102088.09;5293414;28;20024;-75
2022/03/09 06:08:19;;;;;;;14.77;10.20;;;;;;;2.25;48.44;102084.63;5292600;28;20036;-78
2022/03/09 06:10:52;;;;;;;18.07;11.07;;;;;;;2.41;48.08;102089.72;5283524;28;20055;-78
2022/03/09 06:13:23;;;;;;;17.37;9.83;;;;;;;2.16;48.37;102077.78;5293012;28;20031;-79
2022/03/09 06:15:54;;;;;;;16.53;10.83;;;;;;;2.20;48.80;102080.38;5283247;28;20357;-80
2022/03/09 06:18:26;;;;;;;16.63;9.97;;;;;;;2.21;48.46;102090.72;5279333;28;20036;-76
2022/03/09 06:20:57;;;;;;;18.97;9.37;;;;;;;2.22;49.37;102091.53;5280755;28;20440;-76
2022/03/09 06:23:28;;;;;;;15.47;9.63;;;;;;;2.28;48.80;102092.41;5284996;28;20474;-77
2022/03/09 06:26:00;;;;;;;16.60;9.47;;;;;;;2.31;48.93;102094.09;5281006;28;20032;-76
2022/03/09 06:28:31;;;;;;;15.70;9.77;;;;;;;2.15;49.02;102093.31;5282850;28;20046;-77
2022/03/09 06:31:03;;;;;;;24.77;11.33;;;;;;;2.28;49.04;102096.72;5281592;28;20028;-76
2022/03/09 06:33:34;;;;;;;16.77;9.23;;;;;;;2.27;48.40;102103.59;5281958;28;20016;-77
2022/03/09 06:36:06;;;;;;;14.17;9.07;;;;;;;2.23;49.19;102085.53;5281250;28;20784;-77
2022/03/09 06:38:37;;;;;;;20.17;11.63;;;;;;;2.33;48.54;102087.19;5275977;28;20560;-76
2022/03/09 06:41:09;;;;;;;15.13;9.87;;;;;;;2.32;49.16;102018.28;5281597;28;20275;-76
2022/03/09 06:43:40;;;;;;;15.73;9.60;;;;;;;2.35;49.11;102026.00;5281526;28;20016;-76
2022/03/09 06:46:12;;;;;;;18.07;9.73;;;;;;;2.36;49.00;102035.47;5274338;28;20025;-77
2022/03/09 06:48:43;;;;;;;18.80;10.13;;;;;;;2.40;49.02;102044.94;5287012;28;20020;-79
2022/03/09 06:51:14;;;;;;;16.17;10.27;;;;;;;2.49;48.80;102049.19;5287041;28;20028;-78
2022/03/09 06:53:46;;;;;;;20.37;10.63;;;;;;;2.55;49.22;102053.44;5289829;28;20016;-78
2022/03/09 06:56:20;;;;;;;25.97;10.43;;;;;;;2.51;48.45;102062.94;5271585;28;20524;-78
2022/03/09 06:58:52;;;;;;;16.73;9.45;;;;;;;2.53;48.83;102068.13;5277162;28;20032;-79
2022/03/09 07:01:23;;;;;;;17.67;10.00;;;;;;;2.63;48.48;102066.34;5271850;28;20584;-78
2022/03/09 07:03:54;;;;;;;16.10;10.37;;;;;;;2.69;48.53;102073.22;5270524;28;20023;-78
2022/03/09 07:06:25;;;;;;;14.53;9.23;;;;;;;2.64;48.15;102066.34;5287513;28;20040;-78
2022/03/09 07:08:57;;;;;;;14.90;9.97;;;;;;;2.74;47.99;102076.63;5282958;28;20387;-78
2022/03/09 07:11:28;;;;;;;17.17;10.27;;;;;;;2.87;47.33;102082.56;5293543;28;20686;-78
2022/03/09 07:13:59;;;;;;;15.83;9.47;;;;;;;2.99;47.00;102076.44;5296082;28;20043;-78
2022/03/09 07:16:30;;;;;;;19.80;10.70;;;;;;;2.94;47.67;102075.59;5293536;28;20035;-79
2022/03/09 07:19:02;;;;;;;16.57;10.27;;;;;;;3.04;47.13;102090.19;5274881;28;20089;-78
2022/03/09 07:21:34;;;;;;;16.20;10.17;;;;;;;3.09;47.27;102085.84;5287600;28;20068;-80
2022/03/09 07:24:05;;;;;;;21.47;10.00;;;;;;;3.13;46.91;102084.94;5278955;28;20107;-79
2022/03/09 07:26:40;;;;;;;17.07;10.27;;;;;;;3.16;46.83;102083.22;5274183;28;20027;-78
2022/03/09 07:29:11;;;;;;;;;;;;;;;3.59;46.40;102093.16;5275099;28;20028;-79
2022/03/09 07:31:42;;;;;;;18.03;10.40;;;;;;;3.51;46.14;102089.78;5274422;28;20461;-79
2022/03/09 07:34:14;;;;;;;20.33;10.13;;;;;;;3.60;45.98;102083.66;5274485;28;20035;-78
2022/03/09 07:36:45;;;;;;;16.47;9.97;;;;;;;3.78;45.85;102086.91;5274743;28;20471;-78
2022/03/09 07:39:17;;;;;;;15.33;9.37;;;;;;;3.85;45.22;102086.84;5272549;28;20554;-75
2022/03/09 07:41:48;;;;;;;16.30;10.30;;;;;;;4.02;45.10;102085.78;5274294;28;20020;-73
2022/03/09 07:44:19;;;;;;;16.23;9.17;;;;;;;4.11;44.32;102082.22;5278354;28;20069;-75
2022/03/09 07:46:51;;;;;;;15.53;9.23;;;;;;;4.26;44.46;102088.94;5295793;28;20043;-74
2022/03/09 07:49:22;;;;;;;14.87;9.90;;;;;;;4.42;43.82;102063.66;5274823;28;20445;-83
2022/03/09 07:51:53;;;;;;;17.17;9.53;;;;;;;4.79;42.71;102087.34;5289664;28;20107;-84
2022/03/09 07:54:25;;;;;;;20.07;11.30;;;;;;;5.31;42.05;102080.44;5288549;28;20048;-80
2022/03/09 07:56:57;;;;;;;14.67;9.33;;;;;;;5.98;40.68;102085.25;5282235;28;20032;-81
2022/03/09 07:59:28;;;;;;;15.27;9.87;;;;;;;6.49;39.35;102086.81;5293629;28;20032;-80
2022/03/09 08:02:00;;;;;;;14.40;10.10;;;;;;;7.18;38.20;102085.19;5291224;28;20043;-79
2022/03/09 08:04:32;;;;;;;17.80;9.20;;;;;;;7.64;37.69;102087.50;5293811;28;20028;-79
2022/03/09 08:07:03;;;;;;;21.97;8.63;;;;;;;7.95;36.94;102091.84;5286632;28;20079;-78
2022/03/09 08:09:34;;;;;;;16.07;9.13;;;;;;;8.03;36.04;102098.59;5282987;28;21244;-71
2022/03/09 08:12:06;;;;;;;13.87;8.90;;;;;;;8.40;35.56;102109.69;5282686;28;20040;-73
2022/03/09 08:14:37;;;;;;;12.20;8.47;;;;;;;8.52;34.83;102116.31;5284651;28;20040;-73
2022/03/09 08:17:08;;;;;;;15.37;9.17;;;;;;;8.95;33.55;102108.91;5282885;28;20587;-74
2022/03/09 08:19:40;;;;;;;17.67;10.00;;;;;;;9.63;33.13;102113.59;5281678;28;20115;-73
2022/03/09 08:22:11;;;;;;;14.50;9.83;;;;;;;10.24;31.57;102115.78;5282811;28;20035;-71
2022/03/09 08:24:42;;;;;;;12.90;9.63;;;;;;;10.77;30.62;102119.00;5280877;28;20119;-71
2022/03/09 08:27:14;;;;;;;21.67;10.83;;;;;;;11.25;29.57;102111.81;5281799;28;20028;-72
2022/03/09 08:29:45;;;;;;;15.43;10.07;;;;;;;11.54;28.92;102115.84;5282276;28;20024;-73
2022/03/09 08:32:20;;;;;;;15.37;9.40;;;;;;;11.94;28.40;102127.22;5283015;28;20046;-71
2022/03/09 08:34:52;;;;;;;14.43;9.52;;;;;;;12.01;28.09;102122.53;5280724;28;20051;-71
2022/03/09 08:37:23;;;;;;;15.73;9.90;;;;;;;12.86;28.07;102118.66;5283396;28;20036;-71
2022/03/09 08:39:55;;;;;;;15.50;10.20;;;;;;;13.78;27.06;102116.69;5285056;28;20028;-72
2022/03/09 08:42:26;;;;;;;18.77;10.40;;;;;;;14.51;25.37;102127.69;5280772;28;20044;-74
2022/03/09 08:44:57;;;;;;;14.70;10.30;;;;;;;15.31;24.50;102123.16;5281832;28;20035;-72
2022/03/09 08:47:29;;;;;;;16.23;9.30;;;;;;;15.32;24.25;102135.44;5288024;28;20036;-74
2022/03/09 08:50:00;;;;;;;17.17;9.80;;;;;;;14.70;24.07;102135.41;5281711;28;20063;-76
2022/03/09 08:52:31;;;;;;;21.20;9.90;;;;;;;15.43;23.72;102132.16;5281336;28;20042;-75
2022/03/09 08:55:04;;;;;;;16.50;10.20;;;;;;;15.28;23.73;102133.91;5283118;28;20127;-75
2022/03/09 08:57:35;;;;;;;11.37;9.07;;;;;;;15.54;24.51;102132.34;5281691;28;20038;-76
2022/03/09 09:00:07;;;;;;;14.10;9.73;;;;;;;15.60;23.15;102139.06;5279043;28;21250;-77
2022/03/09 09:02:38;;;;;;;14.20;9.40;;;;;;;16.32;22.89;102138.16;5281896;28;20020;-78
2022/03/09 09:05:10;;;;;;;18.77;10.47;;;;;;;17.75;22.28;102139.44;5281151;28;20035;-81
2022/03/09 09:07:41;;;;;;;15.13;10.50;;;;;;;17.10;21.73;102137.63;5283467;28;20128;-86
2022/03/09 09:10:13;;;;;;;14.07;10.07;;;;;;;17.29;21.60;102137.22;5280406;28;20709;-75
2022/03/09 09:12:46;;;;;;;12.10;10.37;;;;;;;18.21;20.75;102134.50;5283230;28;20027;-75
2022/03/09 09:15:17;;;;;;;14.63;9.57;;;;;;;18.70;20.58;102135.34;5281325;28;20039;-74
2022/03/09 09:17:56;;;;;;;17.10;9.97;;;;;;;18.27;21.42;102128.75;5293612;28;20016;-75
2022/03/09 09:20:27;;;;;;;12.90;9.37;;;;;;;17.89;20.78;102126.06;5281545;28;20566;-73
2022/03/09 09:22:59;;;;;;;19.17;10.10;;;;;;;19.51;20.25;102131.13;5277966;28;20081;-73
2022/03/09 09:25:31;;;;;;;14.70;9.97;;;;;;;18.26;20.39;102127.91;5286075;28;20108;-74
2022/03/09 09:28:02;;;;;;;14.67;9.77;;;;;;;19.12;20.54;102122.59;5287606;28;20521;-74
2022/03/09 09:30:34;;;;;;;15.23;10.63;;;;;;;20.46;19.12;102133.44;5281961;28;20048;-72
2022/03/09 09:33:05;;;;;;;14.83;12.13;;;;;;;19.21;19.73;102125.41;5278712;28;20028;-74
2022/03/09 09:35:38;;;;;;;13.93;10.77;;;;;;;20.76;18.89;102137.19;5273072;28;20544;-73
2022/03/09 09:38:09;;;;;;;15.20;10.90;;;;;;;19.87;19.13;102124.81;5271466;28;20466;-74
2022/03/09 09:40:43;;;;;;;16.63;10.57;;;;;;;20.47;18.77;102126.31;5271218;28;20233;-74
2022/03/09 09:43:16;;;;;;;23.50;11.18;;;;;;;19.66;19.06;102133.53;5271564;28;20052;-74
2022/03/09 09:45:47;;;;;;;18.60;11.63;;;;;;;18.73;19.80;102127.16;5272304;28;20348;-74
2022/03/09 09:48:19;;;;;;;16.37;11.07;;;;;;;19.89;19.46;102126.41;5271461;28;20123;-75
2022/03/09 09:50:52;;;;;;;14.80;11.00;;;;;;;20.16;18.85;102135.00;5272349;28;20486;-74
2022/03/09 09:53:24;;;;;;;19.07;12.17;;;;;;;21.94;17.88;102140.69;5271640;28;20064;-74
2022/03/09 09:55:58;;;;;;;17.98;13.32;;;;;;;22.31;17.15;102139.19;5270983;28;20028;-74
2022/03/09 09:58:30;;;;;;;19.65;12.20;;;;;;;22.30;16.99;102135.72;5271638;28;20709;-75
2022/03/09 10:01:01;;;;;;;16.05;12.02;;;;;;;23.35;16.85;102136.06;5271811;28;20082;-74
2022/03/09 10:03:33;;;;;;;20.95;12.50;;;;;;;22.91;17.08;102134.75;5271809;28;20013;-74
2022/03/09 10:06:04;;;;;;;15.88;12.93;;;;;;;22.28;16.91;102139.47;5271587;28;20387;-75
2022/03/09 10:08:38;;;;;;;17.73;12.63;;;;;;;22.33;17.28;102131.91;5271455;28;20115;-75
2022/03/09 10:11:09;;;;;;;15.02;12.13;;;;;;;23.46;17.03;102130.53;5270960;28;20083;-74
2022/03/09 10:13:41;;;;;;;16.63;11.95;;;;;;;23.82;16.76;102127.16;5272022;28;20048;-74
2022/03/09 10:16:20;;;;;;;16.02;12.60;;;;;;;22.07;18.23;102127.09;5275243;28;20028;-82
2022/03/09 10:18:56;;;;;;;19.77;13.98;;;;;;;22.53;17.28;102130.09;5282741;28;20020;-81
2022/03/09 10:21:30;;;;;;;21.35;13.05;;;;;;;21.40;17.94;102126.56;5279554;28;20022;-83
2022/03/09 10:24:03;;;;;;;;;;;;;;;25.01;17.29;102128.97;5283472;28;20031;-84
2022/03/09 10:26:34;;;;;;;17.90;13.55;;;;;;;23.34;16.29;102121.84;5282478;28;19918;-81
2022/03/09 10:29:08;;;;;;;14.35;12.50;;;;;;;21.67;17.95;102116.28;5281689;28;20024;-81
2022/03/09 10:31:43;;;;;;;23.92;15.02;;;;;;;20.32;19.22;102105.31;5282685;28;20516;-77
2022/03/09 10:34:24;;;;;;;17.33;13.48;;;;;;;21.58;18.60;102109.09;5287182;28;20042;-76
2022/03/09 10:37:02;;;;;;;19.90;14.25;;;;;;;19.48;19.82;102106.59;5292461;28;20031;-82
2022/03/09 10:39:39;;;;;;;21.83;13.65;;;;;;;18.85;20.77;102106.81;5284309;28;20024;-82
2022/03/09 10:42:24;;;;;;;26.05;14.75;;;;;;;20.02;20.79;102112.13;5284231;28;20024;-80
2022/03/09 10:44:57;;;;;;;23.05;13.75;;;;;;;19.54;20.93;102104.31;5286758;28;20020;-81
2022/03/09 10:47:34;;;;;;;19.30;12.75;;;;;;;19.75;20.69;102108.03;5287284;28;20466;-82
2022/03/09 10:50:16;;;;;;;18.97;14.20;;;;;;;18.93;21.31;102108.03;5287504;28;20152;-83
2022/03/09 10:52:50;;;;;;;18.37;14.73;;;;;;;17.37;22.49;102094.31;5288999;28;20111;-81
2022/03/09 10:55:33;;;;;;;26.17;15.00;;;;;;;19.01;21.85;102102.16;5284864;28;20649;-86
2022/03/09 10:58:19;;;;;;;16.57;13.97;;;;;;;18.70;22.03;102102.66;5285617;28;20454;-86
2022/03/09 11:00:55;;;;;;;21.93;15.70;;;;;;;17.54;23.48;102102.91;5290991;28;20021;-83
2022/03/09 11:03:33;;;;;;;23.90;16.43;;;;;;;17.63;22.81;102099.59;5286547;28;20389;-84
2022/03/09 11:06:06;;;;;;;22.93;16.77;;;;;;;18.52;22.37;102099.59;5284094;28;20024;-83
2022/03/09 11:08:38;;;;;;;25.00;17.67;;;;;;;17.54;22.92;102105.56;5284434;28;20036;-84
2022/03/09 11:11:10;;;;;;;25.70;17.40;;;;;;;17.66;23.03;102102.03;5286599;28;20089;-83
2022/03/09 11:13:41;;;;;;;23.87;16.87;;;;;;;18.25;22.13;102117.41;5284449;28;20471;-86
2022/03/09 11:16:13;;;;;;;25.83;15.97;;;;;;;17.51;22.67;102098.66;5289161;28;20032;-82
2022/03/09 11:18:45;;;;;;;25.87;18.20;;;;;;;17.16;23.39;102102.78;5296145;28;20825;-76
2022/03/09 11:21:17;;;;;;;24.63;16.63;;;;;;;17.45;23.57;102093.81;5296127;28;20543;-76
2022/03/09 11:23:50;;;;;;;27.60;19.47;;;;;;;16.99;24.12;102090.66;5296276;28;20027;-76
2022/03/09 11:26:27;;;;;;;26.20;16.83;;;;;;;16.85;23.96;102082.81;5294509;28;20024;-75
2022/03/09 11:29:03;;;;;;;24.50;17.43;;;;;;;17.57;22.97;102086.78;5295713;28;20111;-77
2022/03/09 11:31:46;;;;;;;27.80;17.90;;;;;;;17.58;23.37;102091.13;5296112;28;20028;-79
2022/03/09 11:34:32;;;;;;;25.93;18.43;;;;;;;17.20;23.45;102087.53;5293807;28;20024;-80
2022/03/09 11:37:09;;;;;;;27.80;18.50;;;;;;;17.12;23.43;102089.88;5294975;28;20732;-81
2022/03/09 11:39:46;;;;;;;24.50;17.23;;;;;;;16.68;23.83;102085.66;5283961;28;20030;-83
2022/03/09 11:42:19;;;;;;;26.37;16.20;;;;;;;16.61;23.75;102079.06;5283714;28;20025;-81
2022/03/09 11:44:52;;;;;;;29.33;17.83;;;;;;;16.39;24.77;102083.09;5279921;28;20040;-76
2022/03/09 11:47:24;;;;;;;27.03;19.87;;;;;;;16.18;24.31;102061.56;5274680;28;20560;-77